Skiros, Greece
Current Conditions -  °F | °C
As of 5:20 PM on Thursday 30 Oct 2014 (Local Time) from LGTG Reporting Station
Few Clouds Few Clouds  
Wind Chill: 17°   Ceiling: Unl
Heat Index: 17°   Visibility: 6mi
Dew Point:   Wind: 5mph
Humidity: 59%   Direction: 10°N
Pressure: 30.06"   Gusts: NA
Location:  38.9°N, 24.56°E
Report Text: LGTG 301420Z 01004KT 9999 FEW025 17/09 Q1018 BLU
Loading
Personal Weather Stations






























Interactive Weather Map
Tropical Storm Tracking
New forecast layout! Learn more

10-Day Weather Forecast

Advertisements
Track Severe Weather on mobile